createdAt,value
2023-03-25T00:04:50.137Z,10080.00
2023-03-25T00:09:57.297Z,10224.00
2023-03-25T00:15:04.494Z,9900.00
2023-03-25T00:20:11.832Z,9936.00
2023-03-25T00:25:19.229Z,9900.00
2023-03-25T00:30:26.325Z,10008.00
2023-03-25T00:35:33.525Z,10152.00
2023-03-25T00:40:40.709Z,10188.00
2023-03-25T00:45:48.062Z,10080.00
2023-03-25T00:50:55.334Z,9936.00
2023-03-25T00:56:02.554Z,9972.00
2023-03-25T01:01:09.890Z,10152.00
2023-03-25T01:06:17.010Z,10152.00
2023-03-25T01:11:24.202Z,10116.00
2023-03-25T01:16:31.480Z,10224.00
2023-03-25T01:21:38.567Z,10080.00
2023-03-25T01:26:45.831Z,10044.00
2023-03-25T01:32:01.211Z,-216.00
2023-03-25T01:37:43.871Z,-216.00
2023-03-25T01:42:51.265Z,-216.00
2023-03-25T01:47:59.194Z,-216.00
2023-03-25T01:53:51.035Z,-180.00
2023-03-25T01:59:29.971Z,-180.00
2023-03-25T02:05:12.706Z,-216.00
2023-03-25T02:10:32.578Z,-216.00
2023-03-25T02:16:27.646Z,-180.00
2023-03-25T02:21:39.876Z,-216.00
2023-03-25T02:27:09.691Z,-216.00
2023-03-25T02:32:49.814Z,-180.00
2023-03-25T02:37:57.164Z,-216.00
2023-03-25T02:43:05.067Z,-216.00
2023-03-25T02:48:12.434Z,-180.00
2023-03-25T02:53:20.104Z,-180.00
2023-03-25T02:58:27.574Z,-216.00
2023-03-25T03:03:34.970Z,-216.00
2023-03-25T03:08:42.351Z,-180.00
2023-03-25T03:13:50.029Z,-180.00
2023-03-25T03:18:57.674Z,-216.00
2023-03-25T03:24:05.022Z,-216.00
2023-03-25T03:29:12.506Z,-216.00
2023-03-25T03:34:20.160Z,-180.00
2023-03-25T03:39:27.727Z,-180.00
2023-03-25T03:44:35.020Z,-216.00
2023-03-25T03:49:42.246Z,-216.00
2023-03-25T03:54:49.611Z,-216.00
2023-03-25T03:59:57.012Z,-216.00
2023-03-25T04:05:04.362Z,-180.00
2023-03-25T04:10:12.024Z,-180.00
2023-03-25T04:15:19.396Z,-180.00
2023-03-25T04:20:26.732Z,-180.00
2023-03-25T04:25:33.997Z,-180.00
2023-03-25T04:30:41.215Z,-216.00
2023-03-25T04:35:48.480Z,-180.00
2023-03-25T04:40:55.637Z,-216.00
2023-03-25T04:46:02.867Z,-216.00
2023-03-25T04:51:10.012Z,-180.00
2023-03-25T04:56:17.398Z,-216.00
2023-03-25T05:01:24.714Z,-180.00
2023-03-25T05:06:31.995Z,-180.00
2023-03-25T05:11:39.478Z,-216.00
2023-03-25T05:16:46.919Z,-180.00
2023-03-25T05:21:54.145Z,-180.00
2023-03-25T05:27:01.544Z,-180.00
2023-03-25T05:32:08.882Z,-180.00
2023-03-25T05:37:16.264Z,-180.00
2023-03-25T05:42:23.581Z,-216.00
2023-03-25T05:47:30.955Z,-180.00
2023-03-25T05:52:38.529Z,-180.00
2023-03-25T05:57:46.300Z,-180.00
2023-03-25T06:02:55.922Z,-180.00
2023-03-25T06:08:03.254Z,-144.00
2023-03-25T06:13:10.682Z,-180.00
2023-03-25T06:18:18.030Z,-144.00
2023-03-25T06:23:25.400Z,-144.00
2023-03-25T06:28:32.762Z,-144.00
2023-03-25T06:33:42.919Z,-180.00
2023-03-25T06:38:47.779Z,-180.00
2023-03-25T06:43:55.385Z,-72.00
2023-03-25T06:49:02.846Z,-144.00
2023-03-25T06:54:10.246Z,-36.00
2023-03-25T06:59:17.690Z,0.00
2023-03-25T07:04:25.224Z,-36.00
2023-03-25T07:09:32.717Z,0.00
2023-03-25T07:14:40.175Z,72.00
2023-03-25T07:19:47.626Z,216.00
2023-03-25T07:24:54.945Z,36.00
2023-03-25T07:30:02.515Z,108.00
2023-03-25T07:35:09.865Z,-72.00
2023-03-25T07:40:17.148Z,0.00
2023-03-25T07:45:24.873Z,72.00
2023-03-25T07:50:32.333Z,36.00
2023-03-25T07:55:39.604Z,180.00
2023-03-25T08:00:46.926Z,216.00
2023-03-25T08:05:54.594Z,216.00
2023-03-25T08:11:01.862Z,324.00
2023-03-25T08:16:09.408Z,324.00
2023-03-25T08:21:16.728Z,360.00
2023-03-25T08:26:24.145Z,468.00
2023-03-25T08:31:31.547Z,396.00
2023-03-25T08:36:38.937Z,468.00
2023-03-25T08:41:46.537Z,396.00
2023-03-25T08:46:58.812Z,468.00
2023-03-25T08:52:06.075Z,540.00
2023-03-25T08:57:20.971Z,576.00
2023-03-25T09:02:28.409Z,360.00
2023-03-25T09:07:35.730Z,360.00
2023-03-25T09:12:43.126Z,396.00
2023-03-25T09:17:50.471Z,288.00
2023-03-25T09:22:57.793Z,360.00
2023-03-25T09:28:05.128Z,540.00
2023-03-25T09:33:12.442Z,468.00
2023-03-25T09:38:19.615Z,396.00
2023-03-25T09:43:26.927Z,432.00
2023-03-25T09:48:34.075Z,468.00
2023-03-25T09:53:41.258Z,648.00
2023-03-25T09:58:48.464Z,468.00
2023-03-25T10:04:04.775Z,324.00
2023-03-25T10:09:08.544Z,252.00
2023-03-25T10:14:15.971Z,252.00
2023-03-25T10:19:23.512Z,360.00
2023-03-25T10:24:30.943Z,468.00
2023-03-25T10:29:38.353Z,180.00
2023-03-25T10:34:45.808Z,288.00
2023-03-25T10:39:53.176Z,468.00
2023-03-25T10:45:00.651Z,396.00
2023-03-25T10:50:08.042Z,612.00
2023-03-25T10:55:15.919Z,432.00
2023-03-25T11:00:23.481Z,324.00
2023-03-25T11:05:48.132Z,288.00
2023-03-25T11:10:51.692Z,216.00
2023-03-25T11:15:59.113Z,540.00
2023-03-25T11:21:07.773Z,360.00
2023-03-25T11:26:14.971Z,432.00
2023-03-25T11:31:22.316Z,288.00
2023-03-25T11:36:29.558Z,288.00
2023-03-25T11:41:36.897Z,252.00
2023-03-25T11:46:49.012Z,24264.00
2023-03-25T11:51:56.316Z,16488.00
2023-03-25T11:57:03.506Z,15732.00
2023-03-25T12:02:10.740Z,19152.00
2023-03-25T12:07:17.973Z,15804.00
2023-03-25T12:12:25.159Z,16452.00
2023-03-25T12:17:32.493Z,15696.00
2023-03-25T12:22:39.650Z,14976.00
2023-03-25T12:27:46.907Z,18612.00
2023-03-25T12:32:54.112Z,18396.00
2023-03-25T12:38:01.293Z,15120.00
2023-03-25T12:43:08.475Z,15228.00
2023-03-25T12:48:15.713Z,18288.00
2023-03-25T12:53:22.955Z,15120.00
2023-03-25T12:58:30.122Z,17460.00
2023-03-25T13:03:37.292Z,18324.00
2023-03-25T13:08:44.490Z,14652.00
2023-03-25T13:13:51.642Z,16380.00
2023-03-25T13:18:58.840Z,18324.00
2023-03-25T13:24:06.050Z,20988.00
2023-03-25T13:29:13.205Z,21996.00
2023-03-25T13:34:20.409Z,22356.00
2023-03-25T13:39:27.693Z,23004.00
2023-03-25T13:44:34.889Z,22104.00
2023-03-25T13:49:42.167Z,20988.00
2023-03-25T13:54:49.457Z,20556.00
2023-03-25T13:59:56.610Z,19764.00
2023-03-25T14:05:03.906Z,18540.00
2023-03-25T14:10:11.120Z,17496.00
2023-03-25T14:15:18.284Z,17064.00
2023-03-25T14:20:25.507Z,16776.00
2023-03-25T14:25:32.706Z,15444.00
2023-03-25T14:30:39.920Z,15444.00
2023-03-25T14:35:47.156Z,17424.00
2023-03-25T14:41:02.244Z,17892.00
2023-03-25T14:46:01.495Z,17388.00
2023-03-25T14:51:08.693Z,17100.00
2023-03-25T14:56:15.866Z,15588.00
2023-03-25T15:01:23.057Z,15768.00
2023-03-25T15:06:30.211Z,16200.00
2023-03-25T15:11:37.440Z,16416.00
2023-03-25T15:16:44.831Z,18180.00
2023-03-25T15:21:52.114Z,19008.00
2023-03-25T15:26:59.502Z,20484.00
2023-03-25T15:32:06.707Z,20052.00
2023-03-25T15:37:13.957Z,16164.00
2023-03-25T15:42:21.265Z,16344.00
2023-03-25T15:47:28.522Z,15552.00
2023-03-25T15:52:35.797Z,15552.00
2023-03-25T15:57:43.123Z,14580.00
2023-03-25T16:02:50.347Z,12960.00
2023-03-25T16:07:57.556Z,14652.00
2023-03-25T16:13:04.775Z,14904.00
2023-03-25T16:18:12.203Z,10944.00
2023-03-25T16:23:19.548Z,10512.00
2023-03-25T16:28:26.888Z,13752.00
2023-03-25T16:33:34.088Z,11952.00
2023-03-25T16:43:48.461Z,14472.00
2023-03-25T16:59:10.245Z,14940.00
2023-03-25T17:04:17.478Z,13536.00
2023-03-25T17:09:24.697Z,7056.00
2023-03-25T17:14:32.206Z,7632.00
2023-03-25T17:19:39.432Z,10332.00
2023-03-25T17:29:53.890Z,7272.00
2023-03-25T17:40:08.753Z,5040.00
2023-03-25T17:45:16.336Z,4716.00
2023-03-25T17:50:23.550Z,4608.00
2023-03-25T17:55:30.742Z,4032.00
2023-03-25T18:05:45.260Z,4500.00
2023-03-25T18:10:53.003Z,4032.00
2023-03-25T18:15:59.768Z,4032.00
2023-03-25T18:36:29.489Z,4176.00
2023-03-25T18:41:37.063Z,4356.00
2023-03-25T18:46:44.799Z,4572.00
2023-03-25T18:51:52.450Z,4392.00
2023-03-25T18:57:01.226Z,4500.00
2023-03-25T19:02:08.764Z,4176.00
2023-03-25T19:07:16.315Z,4680.00
2023-03-25T19:12:23.943Z,4500.00
2023-03-25T19:17:31.969Z,4608.00
2023-03-25T19:27:47.634Z,4572.00
2023-03-25T19:32:55.369Z,4608.00
2023-03-25T19:38:03.145Z,4644.00
2023-03-25T19:43:10.736Z,4680.00
2023-03-25T19:48:18.476Z,4320.00
2023-03-25T19:53:26.172Z,4284.00
2023-03-25T19:58:33.647Z,4392.00
2023-03-25T20:03:41.413Z,4356.00
2023-03-25T20:08:48.873Z,4392.00
2023-03-25T20:13:56.835Z,4356.00
2023-03-25T20:19:04.199Z,4536.00
2023-03-25T20:24:12.609Z,4248.00
2023-03-25T20:29:20.292Z,4248.00
2023-03-25T20:34:27.770Z,4572.00
2023-03-25T20:39:35.231Z,4536.00
2023-03-25T20:44:42.824Z,4500.00
2023-03-25T20:49:50.465Z,4572.00
2023-03-25T20:54:57.863Z,4572.00
2023-03-25T21:00:05.163Z,4464.00
2023-03-25T21:05:12.768Z,4572.00
2023-03-25T21:10:20.161Z,4788.00
2023-03-25T21:15:27.697Z,4788.00
2023-03-25T21:20:35.159Z,4716.00
2023-03-25T21:25:42.375Z,4536.00
2023-03-25T21:30:49.725Z,4428.00
2023-03-25T21:35:57.090Z,4356.00
2023-03-25T21:41:04.262Z,4392.00
2023-03-25T21:46:11.579Z,4428.00
2023-03-25T21:51:19.079Z,4464.00
2023-03-25T21:56:26.662Z,4320.00
2023-03-25T22:01:34.112Z,4464.00
2023-03-25T22:06:41.300Z,4500.00
2023-03-25T22:11:48.589Z,4644.00
2023-03-25T22:16:55.912Z,4536.00
2023-03-25T22:22:03.131Z,4500.00
2023-03-25T22:27:10.391Z,4500.00
2023-03-25T22:32:17.592Z,4500.00
2023-03-25T22:37:24.887Z,4608.00
2023-03-25T22:42:32.161Z,4572.00
2023-03-25T22:47:39.521Z,4500.00
2023-03-25T22:52:46.738Z,4644.00
2023-03-25T22:57:53.904Z,4824.00
2023-03-25T23:03:01.275Z,4752.00
2023-03-25T23:08:08.507Z,4716.00
2023-03-25T23:13:15.768Z,4608.00
2023-03-25T23:18:23.027Z,4752.00
2023-03-25T23:23:30.286Z,4176.00
2023-03-25T23:28:40.797Z,4212.00
2023-03-25T23:33:45.542Z,4140.00
2023-03-25T23:38:52.932Z,4356.00
2023-03-25T23:44:00.156Z,4464.00
2023-03-25T23:49:07.370Z,4248.00
2023-03-25T23:54:14.798Z,4284.00
2023-03-25T23:59:22.092Z,4356.00
